createdAt,value
2023-03-31T00:02:14.855Z,8.83
2023-03-31T00:05:09.051Z,8.82
2023-03-31T00:07:56.579Z,8.88
2023-03-31T00:13:47.157Z,8.89
2023-03-31T00:16:32.586Z,8.90
2023-03-31T00:19:28.157Z,8.88
2023-03-31T00:22:18.081Z,8.88
2023-03-31T00:24:45.651Z,8.91
2023-03-31T00:27:13.429Z,8.91
2023-03-31T00:29:43.786Z,8.91
2023-03-31T00:32:10.986Z,8.91
2023-03-31T00:34:38.767Z,8.92
2023-03-31T00:37:05.708Z,8.89
2023-03-31T00:39:35.508Z,8.85
2023-03-31T00:42:03.997Z,8.87
2023-03-31T00:44:33.766Z,8.78
2023-03-31T00:47:24.486Z,8.86
2023-03-31T00:49:59.909Z,8.82
2023-03-31T00:52:35.812Z,8.79
2023-03-31T00:55:09.221Z,8.74
2023-03-31T00:57:41.827Z,8.70
2023-03-31T01:00:19.210Z,8.66
2023-03-31T01:02:59.892Z,8.67
2023-03-31T01:05:32.974Z,8.65
2023-03-31T01:08:31.454Z,8.64
2023-03-31T01:11:23.622Z,8.61
2023-03-31T01:14:10.107Z,8.61
2023-03-31T01:16:50.820Z,8.60
2023-03-31T01:19:44.760Z,8.56
2023-03-31T01:22:58.124Z,8.56
2023-03-31T01:26:01.685Z,8.52
2023-03-31T01:29:07.091Z,8.49
2023-03-31T01:32:02.119Z,8.48
2023-03-31T01:34:58.125Z,8.49
2023-03-31T01:37:48.910Z,8.49
2023-03-31T01:40:24.856Z,8.47
2023-03-31T01:43:18.806Z,8.48
2023-03-31T01:45:51.778Z,8.46
2023-03-31T01:48:30.385Z,8.47
2023-03-31T01:51:10.595Z,8.45
2023-03-31T01:54:02.251Z,8.40
2023-03-31T01:56:34.500Z,8.35
2023-03-31T01:59:23.808Z,8.31
2023-03-31T02:01:57.275Z,8.27
2023-03-31T02:04:36.925Z,8.23
2023-03-31T02:07:12.301Z,8.16
2023-03-31T02:09:43.990Z,8.11
2023-03-31T02:12:12.764Z,8.08
2023-03-31T02:14:48.093Z,8.00
2023-03-31T02:17:22.651Z,8.00
2023-03-31T02:19:53.077Z,7.99
2023-03-31T02:22:24.124Z,7.93
2023-03-31T02:24:53.790Z,7.96
2023-03-31T02:27:31.840Z,7.93
2023-03-31T02:29:59.868Z,7.94
2023-03-31T02:32:38.110Z,7.94
2023-03-31T02:35:07.433Z,7.94
2023-03-31T02:37:34.869Z,7.88
2023-03-31T02:40:10.663Z,7.92
2023-03-31T02:42:40.480Z,7.96
2023-03-31T02:45:28.508Z,7.97
2023-03-31T02:47:55.899Z,7.99
2023-03-31T02:50:33.297Z,7.98
2023-03-31T02:53:16.444Z,7.99
2023-03-31T02:55:58.402Z,8.00
2023-03-31T02:58:30.775Z,8.01
2023-03-31T03:01:29.968Z,8.02
2023-03-31T03:04:25.944Z,8.03
2023-03-31T03:07:10.876Z,8.01
2023-03-31T03:10:02.508Z,8.01
2023-03-31T03:12:41.676Z,8.00
2023-03-31T03:15:14.634Z,8.01
2023-03-31T03:17:45.824Z,8.02
2023-03-31T03:20:14.545Z,8.01
2023-03-31T03:22:41.441Z,8.01
2023-03-31T03:25:11.780Z,7.99
2023-03-31T03:27:39.544Z,8.00
2023-03-31T03:30:09.272Z,8.00
2023-03-31T03:32:36.218Z,8.01
2023-03-31T03:35:04.757Z,8.04
2023-03-31T03:37:32.226Z,8.02
2023-03-31T03:39:59.208Z,8.01
2023-03-31T03:42:26.111Z,8.00
2023-03-31T03:44:53.093Z,7.99
2023-03-31T03:47:20.020Z,7.96
2023-03-31T03:49:48.796Z,7.98
2023-03-31T03:52:16.624Z,7.97
2023-03-31T03:54:43.552Z,7.95
2023-03-31T03:57:11.144Z,7.97
2023-03-31T03:59:38.084Z,7.98
2023-03-31T04:02:05.036Z,7.96
2023-03-31T04:04:32.049Z,7.96
2023-03-31T04:06:58.951Z,7.97
2023-03-31T04:09:26.244Z,7.95
2023-03-31T04:11:53.165Z,7.94
2023-03-31T04:14:20.067Z,7.95
2023-03-31T04:16:47.121Z,7.94
2023-03-31T04:19:17.799Z,7.93
2023-03-31T04:21:59.022Z,7.93
2023-03-31T04:24:31.007Z,7.91
2023-03-31T04:26:58.654Z,7.89
2023-03-31T04:29:26.980Z,7.88
2023-03-31T04:31:59.090Z,7.87
2023-03-31T04:34:35.556Z,7.85
2023-03-31T04:37:03.672Z,7.84
2023-03-31T04:39:31.401Z,7.85
2023-03-31T04:41:59.731Z,7.70
2023-03-31T04:44:27.460Z,7.84
2023-03-31T04:46:55.369Z,7.82
2023-03-31T04:49:22.668Z,7.80
2023-03-31T04:51:49.798Z,7.67
2023-03-31T04:54:16.822Z,7.68
2023-03-31T04:56:43.915Z,7.68
2023-03-31T04:59:11.346Z,7.68
2023-03-31T05:01:38.256Z,7.65
2023-03-31T05:04:05.806Z,7.62
2023-03-31T05:06:33.381Z,7.62
2023-03-31T05:09:00.627Z,7.59
2023-03-31T05:11:27.660Z,7.62
2023-03-31T05:13:54.861Z,7.58
2023-03-31T05:16:22.143Z,7.61
2023-03-31T05:18:49.063Z,7.60
2023-03-31T05:21:18.981Z,7.61
2023-03-31T05:23:46.830Z,7.62
2023-03-31T05:26:14.294Z,7.62
2023-03-31T05:28:42.353Z,7.65
2023-03-31T05:31:11.449Z,7.71
2023-03-31T05:33:42.297Z,7.75
2023-03-31T05:36:15.632Z,7.79
2023-03-31T05:38:43.485Z,7.82
2023-03-31T05:41:12.037Z,7.85
2023-03-31T05:43:40.080Z,7.86
2023-03-31T05:46:08.006Z,7.96
2023-03-31T05:48:35.800Z,8.04
2023-03-31T05:51:02.811Z,8.13
2023-03-31T05:53:30.247Z,8.23
2023-03-31T05:56:06.561Z,8.28
2023-03-31T05:58:37.462Z,8.31
2023-03-31T06:01:14.326Z,8.27
2023-03-31T06:03:42.904Z,8.39
2023-03-31T06:06:13.329Z,8.48
2023-03-31T06:08:40.474Z,8.63
2023-03-31T06:11:09.918Z,8.77
2023-03-31T06:13:37.747Z,8.87
2023-03-31T06:16:06.025Z,9.13
2023-03-31T06:18:35.307Z,9.16
2023-03-31T06:21:02.772Z,9.27
2023-03-31T06:23:29.820Z,9.48
2023-03-31T06:26:04.398Z,9.72
2023-03-31T06:28:31.476Z,10.44
2023-03-31T06:31:07.261Z,11.11
2023-03-31T06:33:35.012Z,11.65
2023-03-31T06:36:04.461Z,11.93
2023-03-31T06:38:32.020Z,12.42
2023-03-31T06:40:58.911Z,12.21
2023-03-31T06:43:25.884Z,11.93
2023-03-31T06:45:56.554Z,11.78
2023-03-31T06:48:25.489Z,11.90
2023-03-31T06:50:54.871Z,12.04
2023-03-31T06:53:22.474Z,12.36
2023-03-31T06:55:49.340Z,12.56
2023-03-31T06:58:16.240Z,12.74
2023-03-31T07:00:44.760Z,12.62
2023-03-31T07:03:12.544Z,12.30
2023-03-31T07:05:39.944Z,12.17
2023-03-31T07:08:07.021Z,11.91
2023-03-31T07:10:34.157Z,11.89
2023-03-31T07:13:02.314Z,11.81
2023-03-31T07:15:30.830Z,11.86
2023-03-31T07:18:02.420Z,11.84
2023-03-31T07:20:30.869Z,12.13
2023-03-31T07:22:57.825Z,11.92
2023-03-31T07:25:25.155Z,11.89
2023-03-31T07:27:52.102Z,12.14
2023-03-31T07:30:20.477Z,12.36
2023-03-31T07:32:51.422Z,12.55
2023-03-31T07:35:19.468Z,12.40
2023-03-31T07:37:48.715Z,12.46
2023-03-31T07:40:19.172Z,12.64
2023-03-31T07:42:49.252Z,12.83
2023-03-31T07:45:17.334Z,12.96
2023-03-31T08:34:26.068Z,13.54
2023-03-31T08:36:53.152Z,13.74
2023-03-31T08:39:20.178Z,13.96
2023-03-31T08:41:59.248Z,14.24
2023-03-31T08:44:37.786Z,14.49
2023-03-31T08:47:07.969Z,14.82
2023-03-31T08:49:48.271Z,15.00
2023-03-31T08:52:23.672Z,15.12
2023-03-31T08:54:56.916Z,15.20
2023-03-31T08:57:46.673Z,15.11
2023-03-31T09:00:18.755Z,15.17
2023-03-31T09:03:00.656Z,14.63
2023-03-31T09:05:58.927Z,14.33
2023-03-31T09:08:42.414Z,14.59
2023-03-31T09:11:45.529Z,14.53
2023-03-31T09:14:43.241Z,14.74
2023-03-31T09:17:24.397Z,14.75
2023-03-31T09:19:56.958Z,15.06
2023-03-31T09:22:30.700Z,15.26
2023-03-31T09:25:26.792Z,15.24
2023-03-31T09:27:58.177Z,15.40
2023-03-31T09:30:34.920Z,15.58
2023-03-31T09:33:24.196Z,15.46
2023-03-31T09:35:52.236Z,15.48
2023-03-31T09:38:19.337Z,15.59
2023-03-31T09:40:46.348Z,15.69
2023-03-31T09:43:23.949Z,15.84
2023-03-31T09:46:07.825Z,15.74
2023-03-31T09:48:36.778Z,15.95
2023-03-31T09:51:19.217Z,15.96
2023-03-31T09:54:18.456Z,16.16
2023-03-31T09:56:53.261Z,15.71
2023-03-31T09:59:31.803Z,15.68
2023-03-31T10:02:03.255Z,15.81
2023-03-31T10:04:35.727Z,15.94
2023-03-31T10:07:05.757Z,16.14
2023-03-31T10:09:34.589Z,16.07
2023-03-31T10:12:16.492Z,16.26
2023-03-31T10:14:49.116Z,16.13
2023-03-31T10:17:18.481Z,16.01
2023-03-31T10:19:54.778Z,15.85
2023-03-31T10:22:21.796Z,15.35
2023-03-31T10:24:50.727Z,15.40
2023-03-31T10:27:28.252Z,15.15
2023-03-31T10:29:59.710Z,15.28
2023-03-31T10:32:30.170Z,15.40
2023-03-31T10:34:59.154Z,15.25
2023-03-31T10:37:28.866Z,15.21
2023-03-31T10:40:15.085Z,15.21
2023-03-31T10:42:46.645Z,15.09
2023-03-31T10:45:37.990Z,14.88
2023-03-31T10:48:07.321Z,14.85
2023-03-31T10:50:36.812Z,14.76
2023-03-31T10:53:13.606Z,14.70
2023-03-31T10:56:03.457Z,14.98
2023-03-31T10:58:52.010Z,15.02
2023-03-31T11:01:29.086Z,14.75
2023-03-31T11:03:57.301Z,14.89
2023-03-31T11:06:46.153Z,15.04
2023-03-31T11:09:25.287Z,15.03
2023-03-31T11:12:10.652Z,14.86
2023-03-31T11:15:08.127Z,14.79
2023-03-31T11:18:07.399Z,14.66
2023-03-31T11:21:11.682Z,14.75
2023-03-31T11:23:43.177Z,14.61
2023-03-31T11:26:31.967Z,14.72
2023-03-31T11:29:26.407Z,14.65
2023-03-31T11:31:59.499Z,14.70
2023-03-31T11:34:47.528Z,14.67
2023-03-31T11:37:41.894Z,14.70
2023-03-31T11:40:39.064Z,14.81
2023-03-31T11:43:11.477Z,14.98
2023-03-31T11:45:53.579Z,15.09
2023-03-31T11:48:46.757Z,15.37
2023-03-31T11:51:27.214Z,15.56
2023-03-31T11:53:56.588Z,15.65
2023-03-31T11:56:27.350Z,15.96
2023-03-31T11:58:58.226Z,16.21
2023-03-31T12:01:36.603Z,16.24
2023-03-31T12:04:09.914Z,16.27
2023-03-31T12:06:42.034Z,16.16
2023-03-31T12:09:24.142Z,15.95
2023-03-31T12:12:01.304Z,15.83
2023-03-31T12:14:35.114Z,15.85
2023-03-31T12:17:10.875Z,15.84
2023-03-31T12:20:10.880Z,15.84
2023-03-31T12:22:43.551Z,15.98
2023-03-31T12:25:23.232Z,16.16
2023-03-31T12:27:51.772Z,16.23
2023-03-31T12:30:34.721Z,16.34
2023-03-31T12:33:18.809Z,16.37
2023-03-31T12:35:59.831Z,16.39
2023-03-31T12:38:44.758Z,16.40
2023-03-31T12:41:45.963Z,16.73
2023-03-31T12:44:31.169Z,16.83
2023-03-31T12:47:06.798Z,16.76
2023-03-31T12:49:42.395Z,16.73
2023-03-31T12:52:19.516Z,16.54
2023-03-31T12:55:11.115Z,16.51
2023-03-31T12:57:38.208Z,16.19
2023-03-31T13:00:14.022Z,15.77
2023-03-31T13:02:41.574Z,15.72
2023-03-31T13:05:36.572Z,15.78
2023-03-31T13:08:08.697Z,15.49
2023-03-31T13:10:59.691Z,15.12
2023-03-31T13:13:27.182Z,14.90
2023-03-31T13:15:57.170Z,14.58
2023-03-31T13:18:24.541Z,14.29
2023-03-31T13:21:06.414Z,14.09
2023-03-31T13:23:37.954Z,14.05
2023-03-31T13:26:07.156Z,14.13
2023-03-31T13:28:40.218Z,14.07
2023-03-31T13:31:10.616Z,13.89
2023-03-31T13:33:58.398Z,13.91
2023-03-31T13:36:34.416Z,13.90
2023-03-31T13:39:13.340Z,13.92
2023-03-31T13:41:49.156Z,13.93
2023-03-31T13:44:38.606Z,13.84
2023-03-31T13:47:20.223Z,13.96
2023-03-31T13:50:16.697Z,14.10
2023-03-31T13:53:11.544Z,14.25
2023-03-31T13:56:12.130Z,14.36
2023-03-31T13:59:11.524Z,14.44
2023-03-31T14:02:16.074Z,14.41
2023-03-31T14:04:58.688Z,14.38
2023-03-31T14:07:51.164Z,14.54
2023-03-31T14:10:36.168Z,14.55
2023-03-31T14:13:20.688Z,14.49
2023-03-31T14:15:57.232Z,14.38
2023-03-31T14:18:36.568Z,14.19
2023-03-31T14:21:29.282Z,13.90
2023-03-31T14:24:04.861Z,13.68
2023-03-31T14:26:37.442Z,13.47
2023-03-31T14:29:27.563Z,13.28
2023-03-31T14:32:07.519Z,13.15
2023-03-31T14:34:43.317Z,13.06
2023-03-31T14:37:14.133Z,13.00
2023-03-31T14:39:44.840Z,12.99
2023-03-31T14:42:21.903Z,12.99
2023-03-31T14:44:49.969Z,13.02
2023-03-31T14:47:22.467Z,13.03
2023-03-31T14:50:00.478Z,13.01
2023-03-31T14:52:30.601Z,12.94
2023-03-31T14:54:57.538Z,12.94
2023-03-31T14:57:31.689Z,12.75
2023-03-31T14:59:59.829Z,12.86
2023-03-31T15:02:47.095Z,12.90
2023-03-31T15:05:37.889Z,12.92
2023-03-31T15:08:13.895Z,12.85
2023-03-31T15:10:46.276Z,12.87
2023-03-31T15:13:20.911Z,12.87
2023-03-31T15:15:47.828Z,12.85
2023-03-31T15:18:16.547Z,12.80
2023-03-31T15:20:45.640Z,12.81
2023-03-31T15:23:32.887Z,12.71
2023-03-31T15:26:08.370Z,12.67
2023-03-31T15:28:51.487Z,12.68
2023-03-31T15:31:19.058Z,12.68
2023-03-31T15:33:47.499Z,12.63
2023-03-31T15:36:15.044Z,12.58
2023-03-31T15:38:43.090Z,12.50
2023-03-31T15:41:14.905Z,12.41
2023-03-31T15:43:42.326Z,12.25
2023-03-31T15:46:19.487Z,12.24
2023-03-31T15:48:55.083Z,12.11
2023-03-31T15:51:26.233Z,12.17
2023-03-31T15:53:54.912Z,12.18
2023-03-31T15:56:45.724Z,12.18
2023-03-31T15:59:33.763Z,12.18
2023-03-31T16:02:06.130Z,12.16
2023-03-31T16:04:33.673Z,12.11
2023-03-31T16:07:08.465Z,12.09
2023-03-31T16:09:48.461Z,12.07
2023-03-31T16:12:24.054Z,12.06
2023-03-31T16:15:02.298Z,11.99
2023-03-31T16:17:32.849Z,11.96
2023-03-31T16:20:11.363Z,11.91
2023-03-31T16:22:43.879Z,11.82
2023-03-31T16:25:17.818Z,11.76
2023-03-31T16:27:48.860Z,11.79
2023-03-31T16:30:42.659Z,11.78
2023-03-31T16:33:18.770Z,11.77
2023-03-31T16:35:49.720Z,11.74
2023-03-31T16:38:17.370Z,11.70
2023-03-31T16:40:49.982Z,11.70
2023-03-31T16:43:21.430Z,11.69
2023-03-31T16:45:57.076Z,11.66
2023-03-31T16:48:26.550Z,11.66
2023-03-31T16:50:58.516Z,11.32
2023-03-31T16:53:28.069Z,11.63
2023-03-31T16:55:56.466Z,11.63
2023-03-31T16:58:24.479Z,11.61
2023-03-31T17:00:52.215Z,11.60
2023-03-31T17:03:19.527Z,11.57
2023-03-31T17:05:50.663Z,11.53
2023-03-31T17:08:17.673Z,11.56
2023-03-31T17:10:55.718Z,11.56
2023-03-31T17:13:22.761Z,11.56
2023-03-31T17:15:52.096Z,11.54
2023-03-31T17:18:23.092Z,11.53
2023-03-31T17:20:50.168Z,11.49
2023-03-31T17:23:17.091Z,11.46
2023-03-31T17:25:50.725Z,11.40
2023-03-31T17:28:18.721Z,11.37
2023-03-31T17:30:48.186Z,11.33
2023-03-31T17:33:16.472Z,11.27
2023-03-31T17:35:44.195Z,11.21
2023-03-31T17:38:14.546Z,11.14
2023-03-31T17:40:41.686Z,11.06
2023-03-31T17:43:08.744Z,11.01
2023-03-31T17:45:35.773Z,10.95
2023-03-31T17:48:03.319Z,10.91
2023-03-31T17:50:30.432Z,10.88
2023-03-31T17:52:58.638Z,10.87
2023-03-31T17:55:25.624Z,10.85
2023-03-31T17:57:52.621Z,10.80
2023-03-31T18:00:19.994Z,10.72
2023-03-31T18:02:47.173Z,10.54
2023-03-31T18:05:15.865Z,10.58
2023-03-31T18:07:44.830Z,10.54
2023-03-31T18:10:12.286Z,10.69
2023-03-31T18:12:39.641Z,10.71
2023-03-31T18:15:07.481Z,10.49
2023-03-31T18:17:34.488Z,10.38
2023-03-31T18:20:01.529Z,10.39
2023-03-31T18:22:29.060Z,10.40
2023-03-31T18:24:56.815Z,10.38
2023-03-31T18:27:25.211Z,10.40
2023-03-31T18:29:52.607Z,10.46
2023-03-31T18:32:20.224Z,10.51
2023-03-31T18:34:47.360Z,10.47
2023-03-31T18:37:14.833Z,10.46
2023-03-31T18:39:42.371Z,10.41
2023-03-31T18:42:09.313Z,10.37
2023-03-31T18:44:36.528Z,10.37
2023-03-31T18:47:03.593Z,10.38
2023-03-31T18:49:30.768Z,10.34
2023-03-31T18:51:59.038Z,10.20
2023-03-31T18:54:26.293Z,10.19
2023-03-31T18:56:53.247Z,10.21
2023-03-31T18:59:20.283Z,10.18
2023-03-31T19:01:47.259Z,10.14
2023-03-31T19:04:14.402Z,10.00
2023-03-31T19:06:41.364Z,9.90
2023-03-31T19:09:08.492Z,9.85
2023-03-31T19:11:35.508Z,9.78
2023-03-31T19:14:02.922Z,9.68
2023-03-31T19:16:29.977Z,9.47
2023-03-31T19:18:57.176Z,9.45
2023-03-31T19:21:24.850Z,9.40
2023-03-31T19:23:51.909Z,9.37
2023-03-31T19:26:19.978Z,9.38
2023-03-31T19:28:48.458Z,9.33
2023-03-31T19:31:15.904Z,9.28
2023-03-31T19:33:43.297Z,9.27
2023-03-31T19:36:10.233Z,9.26
2023-03-31T19:38:37.272Z,9.29
2023-03-31T19:41:07.846Z,9.27
2023-03-31T19:43:35.259Z,9.20
2023-03-31T19:46:02.461Z,9.18
2023-03-31T19:48:32.393Z,9.24
2023-03-31T19:51:01.898Z,9.22
2023-03-31T19:53:28.930Z,9.24
2023-03-31T19:55:57.821Z,9.26
2023-03-31T19:58:25.702Z,9.15
2023-03-31T20:00:54.606Z,9.17
2023-03-31T20:03:23.698Z,9.06
2023-03-31T20:05:52.148Z,8.85
2023-03-31T20:08:19.132Z,8.97
2023-03-31T20:10:46.261Z,8.94
2023-03-31T20:13:13.268Z,8.91
2023-03-31T20:15:41.574Z,8.90
2023-03-31T20:18:08.713Z,8.91
2023-03-31T20:20:35.887Z,8.91
2023-03-31T20:23:04.074Z,8.90
2023-03-31T20:25:31.228Z,8.96
2023-03-31T20:27:58.378Z,9.11
2023-03-31T20:30:25.318Z,9.28
2023-03-31T20:32:52.366Z,9.40
2023-03-31T20:35:19.391Z,9.51
2023-03-31T20:37:46.424Z,9.61
2023-03-31T20:40:13.443Z,9.70
2023-03-31T20:42:40.335Z,9.80
2023-03-31T20:45:07.968Z,9.91
2023-03-31T20:47:59.658Z,10.03
2023-03-31T20:50:26.660Z,10.09
2023-03-31T20:52:53.523Z,10.14
2023-03-31T20:55:20.488Z,10.16
2023-03-31T20:57:48.112Z,10.20
2023-03-31T21:00:15.770Z,10.21
2023-03-31T21:02:43.239Z,10.21
2023-03-31T21:05:10.372Z,10.22
2023-03-31T21:07:37.257Z,10.23
2023-03-31T21:10:04.960Z,10.21
2023-03-31T21:12:31.923Z,10.20
2023-03-31T21:14:59.285Z,10.19
2023-03-31T21:17:26.329Z,10.14
2023-03-31T21:19:53.294Z,10.12
2023-03-31T21:22:20.232Z,10.10
2023-03-31T21:24:47.147Z,10.10
2023-03-31T21:27:14.234Z,10.03
2023-03-31T21:29:41.258Z,10.01
2023-03-31T21:32:09.403Z,9.93
2023-03-31T21:34:36.801Z,9.90
2023-03-31T21:37:03.783Z,9.82
2023-03-31T21:39:31.013Z,9.86
2023-03-31T21:41:58.243Z,9.86
2023-03-31T21:44:25.225Z,9.83
2023-03-31T21:46:53.140Z,9.82
2023-03-31T21:49:20.199Z,9.81
2023-03-31T21:51:47.479Z,9.76
2023-03-31T21:54:14.388Z,9.77
2023-03-31T21:56:41.313Z,9.78
2023-03-31T21:59:08.935Z,9.75
2023-03-31T22:01:36.208Z,9.72
2023-03-31T22:04:03.190Z,9.65
2023-03-31T22:06:31.189Z,9.62
2023-03-31T22:08:58.125Z,9.60
2023-03-31T22:11:25.088Z,9.55
2023-03-31T22:13:52.073Z,9.55
2023-03-31T22:16:21.630Z,9.53
2023-03-31T22:18:50.495Z,9.52
2023-03-31T22:21:26.529Z,9.48
2023-03-31T22:24:01.456Z,9.41
2023-03-31T22:26:30.134Z,9.37
2023-03-31T22:28:57.841Z,9.31
2023-03-31T22:31:26.457Z,9.28
2023-03-31T22:33:53.546Z,9.23
2023-03-31T22:36:20.984Z,9.21
2023-03-31T22:38:48.068Z,9.15
2023-03-31T22:41:15.079Z,9.12
2023-03-31T22:43:44.550Z,9.08
2023-03-31T22:46:12.878Z,9.05
2023-03-31T22:48:40.780Z,9.04
2023-03-31T22:51:09.085Z,8.99
2023-03-31T22:53:36.208Z,8.90
2023-03-31T22:56:09.008Z,8.92
2023-03-31T22:58:35.935Z,8.89
2023-03-31T23:01:03.412Z,8.85
2023-03-31T23:03:31.045Z,8.84
2023-03-31T23:05:58.096Z,8.82
2023-03-31T23:08:25.241Z,8.79
2023-03-31T23:10:59.752Z,8.81
2023-03-31T23:13:27.844Z,8.82
2023-03-31T23:15:55.115Z,8.79
2023-03-31T23:18:22.716Z,8.78
2023-03-31T23:20:49.713Z,8.75
2023-03-31T23:23:16.759Z,8.76
2023-03-31T23:25:43.788Z,8.76
2023-03-31T23:28:10.756Z,8.72
2023-03-31T23:30:37.672Z,8.71
2023-03-31T23:33:04.662Z,8.67
2023-03-31T23:35:31.925Z,8.65
2023-03-31T23:37:59.053Z,8.63
2023-03-31T23:40:25.987Z,8.61
2023-03-31T23:42:52.978Z,8.59
2023-03-31T23:45:20.299Z,8.46
2023-03-31T23:47:47.287Z,8.57
2023-03-31T23:50:14.417Z,8.56
2023-03-31T23:52:41.808Z,8.57
2023-03-31T23:55:09.274Z,8.55
2023-03-31T23:57:36.316Z,8.52
